createdAt,value
2022-11-17T00:00:41.837Z,75.20
2022-11-17T00:03:14.648Z,75.10
2022-11-17T00:05:41.387Z,74.90
2022-11-17T00:08:08.162Z,74.80
2022-11-17T00:10:34.939Z,74.80
2022-11-17T00:13:20.123Z,74.90
2022-11-17T00:15:47.082Z,74.80
2022-11-17T00:18:32.669Z,74.80
2022-11-17T00:21:23.587Z,74.80
2022-11-17T00:23:50.962Z,75.00
2022-11-17T00:26:22.003Z,75.10
2022-11-17T00:29:00.659Z,75.00
2022-11-17T00:31:49.706Z,75.00
2022-11-17T00:34:22.334Z,74.80
2022-11-17T00:36:52.598Z,74.60
2022-11-17T00:39:22.352Z,74.70
2022-11-17T00:41:49.712Z,74.90
2022-11-17T00:44:16.936Z,74.90
2022-11-17T00:46:44.057Z,74.90
2022-11-17T00:49:12.201Z,74.90
2022-11-17T00:51:39.281Z,75.00
2022-11-17T00:54:10.791Z,74.90
2022-11-17T00:56:37.684Z,74.80
2022-11-17T00:59:04.783Z,74.80
2022-11-17T01:01:32.149Z,74.90
2022-11-17T01:04:03.506Z,74.90
2022-11-17T01:06:33.364Z,74.80
2022-11-17T01:09:02.645Z,74.90
2022-11-17T01:11:29.434Z,75.00
2022-11-17T01:14:00.484Z,74.90
2022-11-17T01:16:28.866Z,74.90
2022-11-17T01:18:55.600Z,74.90
2022-11-17T01:21:25.290Z,75.00
2022-11-17T01:23:56.174Z,75.00
2022-11-17T01:26:28.025Z,75.00
2022-11-17T01:28:56.352Z,75.00
2022-11-17T01:31:28.155Z,74.90
2022-11-17T01:33:55.700Z,74.80
2022-11-17T01:36:56.984Z,74.80
2022-11-17T01:39:26.173Z,74.60
2022-11-17T01:41:54.528Z,75.40
2022-11-17T01:44:54.991Z,74.80
2022-11-17T01:47:42.021Z,74.60
2022-11-17T01:50:37.518Z,74.60
2022-11-17T01:53:10.586Z,74.60
2022-11-17T01:56:01.183Z,74.60
2022-11-17T01:58:34.874Z,74.60
2022-11-17T02:01:02.073Z,74.80
2022-11-17T02:03:33.206Z,74.70
2022-11-17T02:06:05.986Z,75.00
2022-11-17T02:08:35.809Z,74.80
2022-11-17T02:11:10.145Z,75.00
2022-11-17T02:13:39.386Z,74.90
2022-11-17T02:16:14.579Z,74.80
2022-11-17T02:18:43.747Z,75.10
2022-11-17T02:21:47.088Z,74.70
2022-11-17T02:25:04.632Z,74.70
2022-11-17T02:27:50.777Z,74.70
2022-11-17T02:30:21.564Z,74.60
2022-11-17T02:33:02.747Z,74.70
2022-11-17T02:35:56.160Z,74.50
2022-11-17T02:38:41.537Z,74.50
2022-11-17T02:41:23.050Z,74.60
2022-11-17T02:44:12.198Z,74.60
2022-11-17T02:46:51.188Z,74.50
2022-11-17T02:49:29.352Z,74.50
2022-11-17T02:51:59.536Z,74.60
2022-11-17T02:54:30.744Z,74.60
2022-11-17T02:56:57.943Z,74.60
2022-11-17T02:59:41.247Z,74.60
2022-11-17T03:02:39.350Z,74.50
2022-11-17T03:05:52.441Z,74.60
2022-11-17T03:08:34.107Z,74.70
2022-11-17T03:11:08.169Z,74.70
2022-11-17T03:14:07.035Z,74.70
2022-11-17T03:17:05.541Z,74.50
2022-11-17T03:19:44.516Z,74.80
2022-11-17T03:22:43.819Z,74.60
2022-11-17T03:25:18.900Z,74.60
2022-11-17T03:27:53.304Z,74.80
2022-11-17T03:30:22.318Z,74.60
2022-11-17T03:32:55.234Z,74.70
2022-11-17T03:35:28.983Z,74.70
2022-11-17T03:38:03.871Z,75.00
2022-11-17T03:40:35.819Z,75.00
2022-11-17T03:43:08.000Z,75.10
2022-11-17T03:45:39.423Z,74.90
2022-11-17T03:48:21.053Z,75.00
2022-11-17T03:51:12.775Z,75.00
2022-11-17T03:53:40.288Z,75.00
2022-11-17T03:56:28.278Z,75.00
2022-11-17T03:59:02.536Z,75.00
2022-11-17T04:01:33.453Z,75.00
2022-11-17T04:04:00.560Z,75.00
2022-11-17T04:06:27.398Z,74.70
2022-11-17T04:08:54.213Z,74.80
2022-11-17T04:11:39.853Z,75.00
2022-11-17T04:14:25.448Z,74.90
2022-11-17T04:16:52.185Z,75.00
2022-11-17T04:19:18.936Z,74.80
2022-11-17T04:21:45.658Z,75.10
2022-11-17T04:24:12.473Z,75.20
2022-11-17T04:26:57.625Z,75.20
2022-11-17T04:29:24.348Z,75.20
2022-11-17T04:31:51.055Z,75.10
2022-11-17T04:34:17.780Z,75.10
2022-11-17T04:36:44.536Z,75.10
2022-11-17T04:39:15.846Z,75.10
2022-11-17T04:42:02.048Z,75.30
2022-11-17T04:44:31.380Z,75.30
2022-11-17T04:46:58.762Z,75.40
2022-11-17T04:49:26.362Z,75.40
2022-11-17T04:51:53.599Z,75.40
2022-11-17T04:54:26.637Z,75.30
2022-11-17T04:56:54.857Z,75.40
2022-11-17T04:59:22.105Z,75.50
2022-11-17T05:01:49.433Z,75.40
2022-11-17T05:04:39.450Z,76.10
2022-11-17T05:07:07.899Z,75.40
2022-11-17T05:09:34.813Z,75.60
2022-11-17T05:12:20.097Z,75.50
2022-11-17T05:14:49.055Z,75.70
2022-11-17T05:17:16.809Z,75.60
2022-11-17T05:19:46.459Z,75.70
2022-11-17T05:22:36.266Z,75.60
2022-11-17T05:25:04.677Z,75.50
2022-11-17T05:27:33.323Z,75.60
2022-11-17T05:30:01.840Z,75.60
2022-11-17T05:32:28.574Z,75.60
2022-11-17T05:34:55.291Z,75.70
2022-11-17T05:37:22.011Z,75.70
2022-11-17T05:39:48.740Z,75.70
2022-11-17T05:42:15.465Z,75.70
2022-11-17T05:44:42.194Z,75.80
2022-11-17T05:47:08.959Z,75.70
2022-11-17T05:49:35.884Z,75.80
2022-11-17T05:52:02.569Z,75.90
2022-11-17T05:54:29.298Z,75.90
2022-11-17T05:57:09.378Z,75.80
2022-11-17T05:59:45.567Z,75.90
2022-11-17T06:02:24.707Z,75.80
2022-11-17T06:04:52.196Z,75.70
2022-11-17T06:07:20.123Z,75.90
2022-11-17T06:09:47.682Z,75.70
2022-11-17T06:12:15.321Z,75.90
2022-11-17T06:14:42.599Z,75.90
2022-11-17T06:17:39.185Z,75.70
2022-11-17T06:20:26.093Z,75.80
2022-11-17T06:22:53.010Z,75.90
2022-11-17T06:25:20.691Z,76.00
2022-11-17T06:27:50.518Z,76.10
2022-11-17T06:30:18.397Z,76.10
2022-11-17T06:32:46.830Z,76.10
2022-11-17T06:35:16.363Z,76.00
2022-11-17T06:37:43.626Z,76.00
2022-11-17T06:40:11.644Z,75.90
2022-11-17T06:42:59.721Z,75.90
2022-11-17T06:45:26.522Z,76.00
2022-11-17T06:47:53.851Z,75.90
2022-11-17T06:50:20.956Z,75.80
2022-11-17T06:52:47.759Z,75.90
2022-11-17T06:55:14.762Z,75.80
2022-11-17T06:57:41.541Z,75.70
2022-11-17T07:00:09.546Z,75.70
2022-11-17T07:02:37.140Z,75.70
2022-11-17T07:05:04.804Z,75.40
2022-11-17T07:07:31.605Z,75.30
2022-11-17T07:09:58.422Z,75.40
2022-11-17T07:12:25.207Z,75.20
2022-11-17T07:14:51.896Z,74.70
2022-11-17T07:17:18.613Z,75.00
2022-11-17T07:19:45.322Z,75.10
2022-11-17T07:22:12.051Z,74.90
2022-11-17T07:24:38.910Z,75.10
2022-11-17T07:27:06.554Z,75.30
2022-11-17T07:29:33.359Z,75.10
2022-11-17T07:32:00.125Z,75.00
2022-11-17T07:34:26.906Z,74.80
2022-11-17T07:36:53.675Z,74.50
2022-11-17T07:39:21.884Z,74.40
2022-11-17T07:41:48.964Z,74.50
2022-11-17T07:44:15.707Z,74.20
2022-11-17T07:46:42.445Z,74.20
2022-11-17T07:49:09.174Z,73.90
2022-11-17T07:51:36.044Z,74.00
2022-11-17T07:54:02.795Z,74.00
2022-11-17T07:56:29.573Z,74.10
2022-11-17T07:58:56.322Z,74.00
2022-11-17T08:01:23.104Z,73.90
2022-11-17T08:03:49.956Z,73.80
2022-11-17T08:06:17.007Z,73.80
2022-11-17T08:08:43.774Z,73.90
2022-11-17T08:11:12.778Z,73.70
2022-11-17T08:13:41.120Z,73.50
2022-11-17T08:16:10.832Z,73.60
2022-11-17T08:18:39.190Z,73.90
2022-11-17T08:21:14.876Z,73.70
2022-11-17T08:23:42.107Z,73.10
2022-11-17T08:26:11.516Z,72.60
2022-11-17T08:28:38.864Z,73.20
2022-11-17T08:31:07.786Z,73.20
2022-11-17T08:33:34.675Z,73.10
2022-11-17T08:36:03.162Z,72.90
2022-11-17T08:38:31.434Z,73.10
2022-11-17T08:41:02.626Z,72.60
2022-11-17T08:43:30.565Z,72.70
2022-11-17T08:45:57.399Z,73.10
2022-11-17T08:48:24.556Z,73.10
2022-11-17T08:50:52.231Z,72.50
2022-11-17T08:53:22.025Z,72.70
2022-11-17T08:55:49.554Z,72.20
2022-11-17T08:58:16.599Z,72.20
2022-11-17T09:00:45.371Z,72.40
2022-11-17T09:03:12.272Z,72.40
2022-11-17T09:05:42.773Z,72.00
2022-11-17T09:08:43.523Z,72.40
2022-11-17T09:10:58.151Z,71.90
2022-11-17T09:13:25.178Z,72.40
2022-11-17T09:15:51.929Z,72.40
2022-11-17T09:18:18.658Z,72.40
2022-11-17T09:20:46.263Z,72.60
2022-11-17T09:23:13.235Z,72.20
2022-11-17T09:25:40.008Z,72.20
2022-11-17T09:28:06.805Z,72.30
2022-11-17T09:30:33.884Z,72.30
2022-11-17T09:33:00.803Z,71.90
2022-11-17T09:35:27.821Z,72.10
2022-11-17T09:38:00.660Z,72.10
2022-11-17T09:40:33.219Z,71.90
2022-11-17T09:43:20.204Z,71.80
2022-11-17T09:45:48.940Z,71.80
2022-11-17T09:48:40.724Z,72.00
2022-11-17T09:51:16.759Z,71.70
2022-11-17T09:53:55.768Z,71.70
2022-11-17T09:56:22.576Z,71.70
2022-11-17T09:58:56.788Z,72.00
2022-11-17T10:01:24.338Z,71.80
2022-11-17T10:03:51.525Z,71.90
2022-11-17T10:06:44.549Z,71.60
2022-11-17T10:09:36.516Z,71.60
2022-11-17T10:12:21.224Z,71.50
2022-11-17T10:14:52.163Z,71.50
2022-11-17T10:17:18.889Z,71.70
2022-11-17T10:19:46.143Z,71.70
2022-11-17T10:22:33.266Z,71.90
2022-11-17T10:25:00.092Z,72.00
2022-11-17T10:27:33.822Z,71.80
2022-11-17T10:30:01.994Z,71.90
2022-11-17T10:32:32.834Z,71.40
2022-11-17T10:35:27.609Z,71.90
2022-11-17T10:38:20.773Z,71.30
2022-11-17T10:40:51.461Z,71.80
2022-11-17T10:43:30.062Z,71.60
2022-11-17T10:46:05.018Z,71.40
2022-11-17T10:48:38.765Z,71.50
2022-11-17T10:51:21.103Z,71.40
2022-11-17T10:54:06.616Z,71.20
2022-11-17T10:56:42.506Z,71.00
2022-11-17T10:59:16.946Z,70.60
2022-11-17T11:01:50.779Z,70.90
2022-11-17T11:04:39.445Z,70.60
2022-11-17T11:07:22.865Z,70.60
2022-11-17T11:10:14.270Z,70.20
2022-11-17T11:13:29.465Z,70.60
2022-11-17T11:15:56.277Z,70.30
2022-11-17T11:18:23.313Z,69.80
2022-11-17T11:21:05.232Z,70.60
2022-11-17T11:24:01.894Z,70.50
2022-11-17T11:26:34.328Z,70.60
2022-11-17T11:29:57.190Z,70.60
2022-11-17T11:32:41.265Z,70.70
2022-11-17T11:35:58.105Z,70.80
2022-11-17T11:39:02.305Z,70.40
2022-11-17T11:41:56.912Z,70.40
2022-11-17T11:44:41.381Z,70.70
2022-11-17T11:47:45.809Z,70.30
2022-11-17T11:50:26.792Z,70.80
2022-11-17T11:53:31.022Z,70.90
2022-11-17T11:56:14.885Z,70.20
2022-11-17T11:58:58.965Z,70.70
2022-11-17T12:01:31.259Z,70.60
2022-11-17T12:04:30.578Z,70.60
2022-11-17T12:07:41.312Z,70.10
2022-11-17T12:10:39.382Z,70.30
2022-11-17T12:13:11.090Z,70.10
2022-11-17T12:15:38.081Z,70.60
2022-11-17T12:18:31.482Z,70.30
2022-11-17T12:21:06.136Z,70.10
2022-11-17T12:24:14.686Z,70.50
2022-11-17T12:26:41.806Z,70.30
2022-11-17T12:29:21.231Z,70.00
2022-11-17T12:31:54.112Z,69.80
2022-11-17T12:35:29.029Z,70.10
2022-11-17T12:38:15.252Z,70.20
2022-11-17T12:40:48.108Z,70.20
2022-11-17T12:43:14.800Z,70.30
2022-11-17T12:46:20.428Z,70.40
2022-11-17T12:49:06.767Z,70.00
2022-11-17T12:51:54.448Z,70.10
2022-11-17T12:55:02.583Z,70.10
2022-11-17T12:57:33.517Z,69.80
2022-11-17T13:00:14.745Z,70.00
2022-11-17T13:03:12.090Z,69.80
2022-11-17T13:05:38.832Z,69.70
2022-11-17T13:08:23.502Z,70.10
2022-11-17T13:10:51.184Z,70.00
2022-11-17T13:13:21.957Z,69.70
2022-11-17T13:15:52.471Z,69.40
2022-11-17T13:18:41.899Z,69.70
2022-11-17T13:21:29.740Z,69.70
2022-11-17T13:23:58.988Z,69.70
2022-11-17T13:26:35.948Z,69.60
2022-11-17T13:29:18.283Z,69.60
2022-11-17T13:31:46.195Z,69.80
2022-11-17T13:34:13.484Z,69.80
2022-11-17T13:37:00.737Z,69.80
2022-11-17T13:39:28.707Z,69.30
2022-11-17T13:41:57.982Z,69.60
2022-11-17T13:44:28.277Z,69.30
2022-11-17T13:46:56.088Z,69.30
2022-11-17T13:49:37.968Z,69.10
2022-11-17T13:52:32.511Z,69.30
2022-11-17T13:55:01.878Z,69.50
2022-11-17T13:57:30.479Z,69.10
2022-11-17T14:00:00.002Z,69.30
2022-11-17T14:02:29.519Z,69.50
2022-11-17T14:05:23.535Z,69.60
2022-11-17T14:07:51.141Z,69.60
2022-11-17T14:10:21.002Z,69.50
2022-11-17T14:12:50.185Z,69.50
2022-11-17T14:15:29.674Z,68.80
2022-11-17T14:18:05.350Z,69.20
2022-11-17T14:20:36.014Z,69.30
2022-11-17T14:23:23.061Z,69.30
2022-11-17T14:25:51.276Z,68.50
2022-11-17T14:28:23.008Z,69.20
2022-11-17T14:30:56.139Z,69.20
2022-11-17T14:33:23.902Z,69.20
2022-11-17T14:35:58.660Z,69.30
2022-11-17T14:38:25.717Z,69.30
2022-11-17T14:40:53.494Z,68.90
2022-11-17T14:43:21.921Z,69.40
2022-11-17T14:45:51.894Z,69.40
2022-11-17T14:48:20.141Z,69.30
2022-11-17T14:50:47.790Z,69.30
2022-11-17T14:53:14.939Z,69.30
2022-11-17T14:55:41.691Z,69.00
2022-11-17T14:58:09.882Z,69.20
2022-11-17T15:00:37.231Z,69.20
2022-11-17T15:05:46.297Z,69.30
2022-11-17T15:08:14.215Z,69.40
2022-11-17T15:10:45.491Z,69.20
2022-11-17T15:13:12.444Z,69.20
2022-11-17T15:15:39.235Z,69.20
2022-11-17T15:18:06.536Z,69.20
2022-11-17T15:20:33.307Z,69.50
2022-11-17T15:23:03.268Z,69.30
2022-11-17T15:25:30.658Z,69.40
2022-11-17T15:27:57.422Z,70.10
2022-11-17T15:30:24.247Z,69.50
2022-11-17T15:32:51.130Z,69.50
2022-11-17T15:35:18.085Z,69.40
2022-11-17T15:37:44.885Z,69.50
2022-11-17T15:40:16.391Z,69.70
2022-11-17T15:42:46.068Z,69.80
2022-11-17T15:45:13.500Z,69.80
2022-11-17T15:47:40.249Z,69.90
2022-11-17T15:50:08.005Z,69.80
2022-11-17T15:53:02.298Z,70.10
2022-11-17T15:55:21.761Z,69.80
2022-11-17T15:57:48.459Z,69.80
2022-11-17T16:00:17.400Z,70.10
2022-11-17T16:02:44.176Z,69.80
2022-11-17T16:05:11.296Z,70.10
2022-11-17T16:07:39.795Z,70.20
2022-11-17T16:10:06.822Z,70.20
2022-11-17T16:12:33.562Z,70.30
2022-11-17T16:15:00.420Z,70.40
2022-11-17T16:17:27.190Z,71.20
2022-11-17T16:19:53.966Z,70.30
2022-11-17T16:22:20.670Z,70.40
2022-11-17T16:24:47.433Z,70.60
2022-11-17T16:27:14.177Z,70.60
2022-11-17T16:29:41.116Z,70.80
2022-11-17T16:32:08.387Z,71.00
2022-11-17T16:34:36.259Z,71.00
2022-11-17T16:37:03.012Z,70.90
2022-11-17T16:39:29.778Z,71.00
2022-11-17T16:41:56.561Z,71.10
2022-11-17T16:44:23.318Z,71.10
2022-11-17T16:46:50.156Z,71.20
2022-11-17T16:49:19.123Z,71.40
2022-11-17T16:51:52.560Z,71.60
2022-11-17T16:54:20.616Z,71.70
2022-11-17T16:56:47.670Z,71.80
2022-11-17T16:59:16.210Z,72.00
2022-11-17T17:01:43.342Z,72.20
2022-11-17T17:04:12.240Z,72.20
2022-11-17T17:06:43.004Z,72.30
2022-11-17T17:09:14.408Z,72.40
2022-11-17T17:11:41.659Z,72.50
2022-11-17T17:14:12.866Z,72.70
2022-11-17T17:16:40.143Z,72.80
2022-11-17T17:19:09.928Z,73.00
2022-11-17T17:21:39.269Z,73.20
2022-11-17T17:24:06.904Z,73.30
2022-11-17T17:26:35.023Z,73.30
2022-11-17T17:29:04.656Z,73.40
2022-11-17T17:31:35.802Z,73.40
2022-11-17T17:34:04.247Z,73.30
2022-11-17T17:36:31.854Z,73.30
2022-11-17T17:39:01.978Z,73.30
2022-11-17T17:41:37.502Z,73.40
2022-11-17T17:44:07.329Z,73.40
2022-11-17T17:46:38.828Z,73.30
2022-11-17T17:49:06.800Z,74.20
2022-11-17T17:51:39.946Z,73.60
2022-11-17T17:54:07.698Z,73.60
2022-11-17T17:56:34.860Z,73.40
2022-11-17T17:59:01.820Z,73.50
2022-11-17T18:01:33.171Z,73.40
2022-11-17T18:04:04.806Z,73.40
2022-11-17T18:06:40.186Z,73.60
2022-11-17T18:09:10.482Z,73.50
2022-11-17T18:11:37.474Z,73.70
2022-11-17T18:14:04.609Z,73.70
2022-11-17T18:16:33.718Z,73.70
2022-11-17T18:19:04.164Z,73.80
2022-11-17T18:21:31.686Z,73.70
2022-11-17T18:24:01.166Z,73.90
2022-11-17T18:26:37.848Z,73.90
2022-11-17T18:29:08.113Z,73.90
2022-11-17T18:31:37.774Z,73.90
2022-11-17T18:34:21.085Z,73.90
2022-11-17T18:36:53.783Z,74.10
2022-11-17T18:39:21.311Z,74.30
2022-11-17T18:41:48.383Z,74.10
2022-11-17T18:44:19.293Z,74.10
2022-11-17T18:46:46.820Z,74.20
2022-11-17T18:49:14.188Z,75.00
2022-11-17T18:51:41.153Z,74.30
2022-11-17T18:54:08.069Z,74.40
2022-11-17T18:56:37.314Z,74.40
2022-11-17T18:59:11.365Z,74.60
2022-11-17T19:01:41.414Z,74.20
2022-11-17T19:04:08.608Z,74.60
2022-11-17T19:06:36.156Z,74.70
2022-11-17T19:09:04.582Z,74.60
2022-11-17T19:11:32.938Z,74.50
2022-11-17T19:14:05.342Z,74.50
2022-11-17T19:16:33.167Z,74.50
2022-11-17T19:19:00.447Z,74.50
2022-11-17T19:21:30.865Z,74.50
2022-11-17T19:24:00.742Z,75.10
2022-11-17T19:26:34.588Z,74.50
2022-11-17T19:29:05.365Z,74.50
2022-11-17T19:31:33.537Z,74.50
2022-11-17T19:34:00.410Z,74.50
2022-11-17T19:36:30.481Z,74.60
2022-11-17T19:39:00.641Z,74.70
2022-11-17T19:41:34.898Z,74.70
2022-11-17T19:44:05.342Z,74.70
2022-11-17T19:46:33.321Z,74.90
2022-11-17T19:49:00.051Z,75.10
2022-11-17T19:51:31.311Z,74.80
2022-11-17T19:54:02.078Z,74.50
2022-11-17T19:56:29.266Z,74.60
2022-11-17T19:58:56.028Z,74.60
2022-11-17T20:01:28.524Z,74.60
2022-11-17T20:03:57.375Z,74.80
2022-11-17T20:06:27.949Z,74.70
2022-11-17T20:08:58.185Z,74.60
2022-11-17T20:11:28.343Z,74.70
2022-11-17T20:13:56.061Z,74.80
2022-11-17T20:16:26.142Z,74.80
2022-11-17T20:18:59.218Z,74.90
2022-11-17T20:21:27.560Z,75.00
2022-11-17T20:23:55.724Z,75.00
2022-11-17T20:26:29.320Z,75.00
2022-11-17T20:28:58.527Z,75.70
2022-11-17T20:31:32.252Z,75.10
2022-11-17T20:34:01.335Z,74.90
2022-11-17T20:36:31.141Z,74.80
2022-11-17T20:39:01.813Z,74.80
2022-11-17T20:41:29.865Z,75.00
2022-11-17T20:43:59.616Z,75.10
2022-11-17T20:46:27.675Z,75.10
2022-11-17T20:48:55.002Z,75.20
2022-11-17T20:51:24.453Z,74.90
2022-11-17T20:53:51.555Z,74.80
2022-11-17T20:56:19.436Z,74.70
2022-11-17T21:01:23.984Z,74.10
2022-11-17T21:03:51.197Z,74.80
2022-11-17T21:06:19.743Z,74.70
2022-11-17T21:08:47.072Z,74.80
2022-11-17T21:11:36.650Z,74.60
2022-11-17T21:14:09.759Z,74.50
2022-11-17T21:16:39.073Z,74.60
2022-11-17T21:19:05.788Z,74.80
2022-11-17T21:21:32.731Z,74.80
2022-11-17T21:23:59.834Z,74.80
2022-11-17T21:26:27.865Z,74.60
2022-11-17T21:28:54.728Z,74.60
2022-11-17T21:31:24.983Z,74.60
2022-11-17T21:33:54.818Z,74.50
2022-11-17T21:36:23.698Z,74.50
2022-11-17T21:38:51.811Z,74.80
2022-11-17T21:41:25.841Z,74.70
2022-11-17T21:43:54.026Z,74.80
2022-11-17T21:46:24.813Z,74.80
2022-11-17T21:48:53.442Z,74.60
2022-11-17T21:51:27.877Z,74.50
2022-11-17T21:53:59.954Z,74.50
2022-11-17T21:56:28.469Z,74.40
2022-11-17T21:59:04.316Z,74.50
2022-11-17T22:01:32.797Z,74.60
2022-11-17T22:04:00.044Z,74.60
2022-11-17T22:06:27.699Z,74.40
2022-11-17T22:08:56.316Z,74.40
2022-11-17T22:11:36.015Z,74.50
2022-11-17T22:14:10.938Z,74.30
2022-11-17T22:16:44.598Z,74.30
2022-11-17T22:19:12.677Z,74.30
2022-11-17T22:21:39.926Z,74.60
2022-11-17T22:24:10.530Z,74.60
2022-11-17T22:26:40.856Z,75.20
2022-11-17T22:29:12.753Z,74.40
2022-11-17T22:31:39.549Z,74.50
2022-11-17T22:34:06.624Z,74.40
2022-11-17T22:36:33.521Z,74.60
2022-11-17T22:39:00.265Z,74.50
2022-11-17T22:41:27.032Z,74.60
2022-11-17T22:43:56.420Z,74.70
2022-11-17T22:46:27.253Z,74.70
2022-11-17T22:48:54.282Z,74.80
2022-11-17T22:51:40.619Z,74.70
2022-11-17T22:54:08.631Z,74.60
2022-11-17T22:56:36.121Z,74.70
2022-11-17T22:59:02.897Z,74.70
2022-11-17T23:01:29.627Z,74.60
2022-11-17T23:03:56.621Z,74.60
2022-11-17T23:06:24.136Z,74.60
2022-11-17T23:08:51.185Z,74.50
2022-11-17T23:14:07.872Z,74.70
2022-11-17T23:16:36.865Z,74.60
2022-11-17T23:19:05.298Z,74.60
2022-11-17T23:21:32.396Z,74.50
2022-11-17T23:23:59.257Z,74.50
2022-11-17T23:26:26.011Z,74.50
2022-11-17T23:28:52.769Z,74.60
2022-11-17T23:31:19.492Z,74.80
2022-11-17T23:33:48.030Z,74.80
2022-11-17T23:36:22.915Z,74.80
2022-11-17T23:38:51.021Z,74.50
2022-11-17T23:41:20.513Z,74.50
2022-11-17T23:43:51.947Z,74.60
2022-11-17T23:46:22.894Z,74.60
2022-11-17T23:48:49.785Z,74.80
2022-11-17T23:51:24.239Z,75.00
2022-11-17T23:53:51.781Z,75.20
2022-11-17T23:56:22.586Z,75.40
2022-11-17T23:58:50.885Z,75.50
